sensor_id;sensor_type;location;lat;lon;timestamp;P1;durP1;ratioP1;P2;durP2;ratioP2
8411;SDS011;4243;49.296;11.348;2022-12-18T00:01:38;105.18;;;3.63;;
8411;SDS011;4243;49.296;11.348;2022-12-18T00:04:06;106.07;;;3.70;;
8411;SDS011;4243;49.296;11.348;2022-12-18T00:06:42;105.40;;;3.60;;
8411;SDS011;4243;49.296;11.348;2022-12-18T00:09:13;104.72;;;3.60;;
8411;SDS011;4243;49.296;11.348;2022-12-18T00:11:41;105.45;;;3.65;;
8411;SDS011;4243;49.296;11.348;2022-12-18T00:14:09;104.97;;;3.60;;
8411;SDS011;4243;49.296;11.348;2022-12-18T00:16:39;104.97;;;3.65;;
8411;SDS011;4243;49.296;11.348;2022-12-18T00:19:12;104.63;;;3.65;;
8411;SDS011;4243;49.296;11.348;2022-12-18T00:21:41;105.25;;;3.60;;
8411;SDS011;4243;49.296;11.348;2022-12-18T00:24:10;105.60;;;3.63;;
8411;SDS011;4243;49.296;11.348;2022-12-18T00:26:38;105.10;;;3.65;;
8411;SDS011;4243;49.296;11.348;2022-12-18T00:29:07;105.28;;;3.60;;
8411;SDS011;4243;49.296;11.348;2022-12-18T00:31:40;103.72;;;3.63;;
8411;SDS011;4243;49.296;11.348;2022-12-18T00:34:09;104.75;;;3.60;;
8411;SDS011;4243;49.296;11.348;2022-12-18T00:36:39;104.95;;;3.67;;
8411;SDS011;4243;49.296;11.348;2022-12-18T00:39:08;104.78;;;3.70;;
8411;SDS011;4243;49.296;11.348;2022-12-18T00:41:38;103.97;;;3.70;;
8411;SDS011;4243;49.296;11.348;2022-12-18T00:44:24;104.50;;;3.63;;
8411;SDS011;4243;49.296;11.348;2022-12-18T00:46:51;104.38;;;3.58;;
8411;SDS011;4243;49.296;11.348;2022-12-18T00:49:18;104.50;;;3.67;;
8411;SDS011;4243;49.296;11.348;2022-12-18T00:51:46;104.28;;;3.60;;
8411;SDS011;4243;49.296;11.348;2022-12-18T00:54:15;104.43;;;3.67;;
8411;SDS011;4243;49.296;11.348;2022-12-18T00:56:43;104.90;;;3.58;;
8411;SDS011;4243;49.296;11.348;2022-12-18T00:59:15;105.00;;;3.70;;
8411;SDS011;4243;49.296;11.348;2022-12-18T01:01:44;104.05;;;3.67;;
8411;SDS011;4243;49.296;11.348;2022-12-18T01:04:12;104.43;;;3.65;;
8411;SDS011;4243;49.296;11.348;2022-12-18T01:06:40;104.38;;;3.63;;
8411;SDS011;4243;49.296;11.348;2022-12-18T01:09:07;104.95;;;3.60;;
8411;SDS011;4243;49.296;11.348;2022-12-18T01:11:35;104.03;;;3.63;;
8411;SDS011;4243;49.296;11.348;2022-12-18T01:14:03;104.30;;;3.63;;
8411;SDS011;4243;49.296;11.348;2022-12-18T01:16:31;105.07;;;3.67;;
8411;SDS011;4243;49.296;11.348;2022-12-18T01:18:58;104.28;;;3.67;;
8411;SDS011;4243;49.296;11.348;2022-12-18T01:21:26;104.50;;;3.60;;
8411;SDS011;4243;49.296;11.348;2022-12-18T01:23:54;104.28;;;3.53;;
8411;SDS011;4243;49.296;11.348;2022-12-18T01:26:23;103.97;;;3.60;;
8411;SDS011;4243;49.296;11.348;2022-12-18T01:28:51;104.28;;;3.60;;
8411;SDS011;4243;49.296;11.348;2022-12-18T01:31:24;104.28;;;3.63;;
8411;SDS011;4243;49.296;11.348;2022-12-18T01:33:59;105.00;;;3.60;;
8411;SDS011;4243;49.296;11.348;2022-12-18T01:36:32;103.97;;;3.53;;
8411;SDS011;4243;49.296;11.348;2022-12-18T01:39:04;104.47;;;3.60;;
8411;SDS011;4243;49.296;11.348;2022-12-18T01:41:41;104.75;;;3.55;;
8411;SDS011;4243;49.296;11.348;2022-12-18T01:47:51;104.85;;;3.58;;
8411;SDS011;4243;49.296;11.348;2022-12-18T01:50:25;104.47;;;3.58;;
8411;SDS011;4243;49.296;11.348;2022-12-18T01:53:27;105.22;;;3.60;;
8411;SDS011;4243;49.296;11.348;2022-12-18T01:55:55;104.47;;;3.53;;
8411;SDS011;4243;49.296;11.348;2022-12-18T01:58:43;105.05;;;3.58;;
8411;SDS011;4243;49.296;11.348;2022-12-18T02:01:19;104.13;;;3.60;;
8411;SDS011;4243;49.296;11.348;2022-12-18T02:03:51;104.28;;;3.50;;
8411;SDS011;4243;49.296;11.348;2022-12-18T02:06:21;105.10;;;3.55;;
8411;SDS011;4243;49.296;11.348;2022-12-18T02:09:09;104.97;;;3.58;;
8411;SDS011;4243;49.296;11.348;2022-12-18T02:14:52;105.35;;;3.53;;
8411;SDS011;4243;49.296;11.348;2022-12-18T02:17:35;105.03;;;3.53;;
8411;SDS011;4243;49.296;11.348;2022-12-18T02:20:27;104.72;;;3.50;;
8411;SDS011;4243;49.296;11.348;2022-12-18T02:26:20;104.78;;;3.58;;
8411;SDS011;4243;49.296;11.348;2022-12-18T02:29:12;104.43;;;3.50;;
8411;SDS011;4243;49.296;11.348;2022-12-18T02:31:51;105.22;;;3.53;;
8411;SDS011;4243;49.296;11.348;2022-12-18T02:34:30;103.70;;;3.50;;
8411;SDS011;4243;49.296;11.348;2022-12-18T02:37:03;105.57;;;3.53;;
8411;SDS011;4243;49.296;11.348;2022-12-18T02:39:42;105.68;;;3.55;;
8411;SDS011;4243;49.296;11.348;2022-12-18T02:42:14;105.38;;;3.47;;
8411;SDS011;4243;49.296;11.348;2022-12-18T02:44:43;105.50;;;3.42;;
8411;SDS011;4243;49.296;11.348;2022-12-18T02:47:18;104.47;;;3.38;;
8411;SDS011;4243;49.296;11.348;2022-12-18T02:55:59;106.05;;;3.50;;
8411;SDS011;4243;49.296;11.348;2022-12-18T03:01:55;106.30;;;3.47;;
8411;SDS011;4243;49.296;11.348;2022-12-18T03:04:43;105.78;;;3.50;;
8411;SDS011;4243;49.296;11.348;2022-12-18T03:07:49;105.97;;;3.47;;
8411;SDS011;4243;49.296;11.348;2022-12-18T03:10:35;105.53;;;3.40;;
8411;SDS011;4243;49.296;11.348;2022-12-18T03:13:21;105.97;;;3.45;;
8411;SDS011;4243;49.296;11.348;2022-12-18T03:16:01;105.82;;;3.45;;
8411;SDS011;4243;49.296;11.348;2022-12-18T03:18:46;106.28;;;3.45;;
8411;SDS011;4243;49.296;11.348;2022-12-18T03:21:23;106.68;;;3.45;;
8411;SDS011;4243;49.296;11.348;2022-12-18T03:24:03;106.57;;;3.38;;
8411;SDS011;4243;49.296;11.348;2022-12-18T03:26:36;106.18;;;3.45;;
8411;SDS011;4243;49.296;11.348;2022-12-18T03:29:15;106.07;;;3.45;;
8411;SDS011;4243;49.296;11.348;2022-12-18T03:31:49;106.07;;;3.47;;
8411;SDS011;4243;49.296;11.348;2022-12-18T03:34:26;105.82;;;3.42;;
8411;SDS011;4243;49.296;11.348;2022-12-18T03:37:04;106.32;;;3.40;;
8411;SDS011;4243;49.296;11.348;2022-12-18T03:39:34;107.05;;;3.45;;
8411;SDS011;4243;49.296;11.348;2022-12-18T03:45:12;107.05;;;3.45;;
8411;SDS011;4243;49.296;11.348;2022-12-18T03:47:59;106.78;;;3.47;;
8411;SDS011;4243;49.296;11.348;2022-12-18T03:50:59;105.82;;;3.42;;
8411;SDS011;4243;49.296;11.348;2022-12-18T03:56:22;106.22;;;3.42;;
8411;SDS011;4243;49.296;11.348;2022-12-18T03:58:57;106.57;;;3.40;;
8411;SDS011;4243;49.296;11.348;2022-12-18T04:01:30;107.07;;;3.40;;
8411;SDS011;4243;49.296;11.348;2022-12-18T04:04:04;107.15;;;3.50;;
8411;SDS011;4243;49.296;11.348;2022-12-18T04:06:37;106.68;;;3.45;;
8411;SDS011;4243;49.296;11.348;2022-12-18T04:09:10;106.13;;;3.45;;
8411;SDS011;4243;49.296;11.348;2022-12-18T04:11:42;106.32;;;3.42;;
8411;SDS011;4243;49.296;11.348;2022-12-18T04:14:14;107.25;;;3.40;;
8411;SDS011;4243;49.296;11.348;2022-12-18T04:16:46;106.97;;;3.42;;
8411;SDS011;4243;49.296;11.348;2022-12-18T04:19:15;106.88;;;3.42;;
8411;SDS011;4243;49.296;11.348;2022-12-18T04:21:46;106.97;;;3.45;;
8411;SDS011;4243;49.296;11.348;2022-12-18T04:24:14;106.57;;;3.42;;
8411;SDS011;4243;49.296;11.348;2022-12-18T04:26:50;107.05;;;3.47;;
8411;SDS011;4243;49.296;11.348;2022-12-18T04:29:23;106.78;;;3.42;;
8411;SDS011;4243;49.296;11.348;2022-12-18T04:31:50;106.38;;;3.45;;
8411;SDS011;4243;49.296;11.348;2022-12-18T04:34:19;106.78;;;3.45;;
8411;SDS011;4243;49.296;11.348;2022-12-18T04:36:50;106.28;;;3.47;;
8411;SDS011;4243;49.296;11.348;2022-12-18T04:39:19;106.57;;;3.42;;
8411;SDS011;4243;49.296;11.348;2022-12-18T04:41:48;107.15;;;3.40;;
8411;SDS011;4243;49.296;11.348;2022-12-18T04:44:16;106.82;;;3.42;;
8411;SDS011;4243;49.296;11.348;2022-12-18T04:46:43;107.20;;;3.45;;
8411;SDS011;4243;49.296;11.348;2022-12-18T04:49:11;105.93;;;3.42;;
8411;SDS011;4243;49.296;11.348;2022-12-18T04:51:39;107.30;;;3.42;;
8411;SDS011;4243;49.296;11.348;2022-12-18T04:54:06;107.07;;;3.42;;
8411;SDS011;4243;49.296;11.348;2022-12-18T04:56:33;106.90;;;3.40;;
8411;SDS011;4243;49.296;11.348;2022-12-18T04:59:00;107.28;;;3.40;;
8411;SDS011;4243;49.296;11.348;2022-12-18T05:01:27;107.28;;;3.50;;
8411;SDS011;4243;49.296;11.348;2022-12-18T05:04:00;107.57;;;3.40;;
8411;SDS011;4243;49.296;11.348;2022-12-18T05:06:28;106.32;;;3.40;;
8411;SDS011;4243;49.296;11.348;2022-12-18T05:08:55;106.47;;;3.42;;
8411;SDS011;4243;49.296;11.348;2022-12-18T05:11:23;107.18;;;3.42;;
8411;SDS011;4243;49.296;11.348;2022-12-18T05:13:50;106.72;;;3.40;;
8411;SDS011;4243;49.296;11.348;2022-12-18T05:16:17;107.15;;;3.40;;
8411;SDS011;4243;49.296;11.348;2022-12-18T05:18:44;107.40;;;3.40;;
8411;SDS011;4243;49.296;11.348;2022-12-18T05:21:11;106.75;;;3.42;;
8411;SDS011;4243;49.296;11.348;2022-12-18T05:23:38;107.15;;;3.40;;
8411;SDS011;4243;49.296;11.348;2022-12-18T05:26:06;107.03;;;3.47;;
8411;SDS011;4243;49.296;11.348;2022-12-18T05:28:42;107.13;;;3.40;;
8411;SDS011;4243;49.296;11.348;2022-12-18T05:31:10;106.78;;;3.47;;
8411;SDS011;4243;49.296;11.348;2022-12-18T05:33:37;106.78;;;3.50;;
8411;SDS011;4243;49.296;11.348;2022-12-18T05:36:06;107.50;;;3.42;;
8411;SDS011;4243;49.296;11.348;2022-12-18T05:38:35;106.88;;;3.45;;
8411;SDS011;4243;49.296;11.348;2022-12-18T05:41:05;107.15;;;3.50;;
8411;SDS011;4243;49.296;11.348;2022-12-18T05:43:35;107.50;;;3.40;;
8411;SDS011;4243;49.296;11.348;2022-12-18T05:46:08;106.88;;;3.40;;
8411;SDS011;4243;49.296;11.348;2022-12-18T05:48:41;107.25;;;3.42;;
8411;SDS011;4243;49.296;11.348;2022-12-18T05:51:11;106.90;;;3.40;;
8411;SDS011;4243;49.296;11.348;2022-12-18T05:53:44;107.40;;;3.45;;
8411;SDS011;4243;49.296;11.348;2022-12-18T05:56:19;106.93;;;3.42;;
8411;SDS011;4243;49.296;11.348;2022-12-18T05:58:51;107.28;;;3.42;;
8411;SDS011;4243;49.296;11.348;2022-12-18T06:01:21;107.30;;;3.40;;
8411;SDS011;4243;49.296;11.348;2022-12-18T06:03:52;107.45;;;3.40;;
8411;SDS011;4243;49.296;11.348;2022-12-18T06:06:21;107.40;;;3.45;;
8411;SDS011;4243;49.296;11.348;2022-12-18T06:08:52;107.25;;;3.40;;
8411;SDS011;4243;49.296;11.348;2022-12-18T06:11:22;107.32;;;3.45;;
8411;SDS011;4243;49.296;11.348;2022-12-18T06:13:52;107.07;;;3.47;;
8411;SDS011;4243;49.296;11.348;2022-12-18T06:16:25;107.40;;;3.45;;
8411;SDS011;4243;49.296;11.348;2022-12-18T06:18:58;106.97;;;3.45;;
8411;SDS011;4243;49.296;11.348;2022-12-18T06:21:27;107.30;;;3.50;;
8411;SDS011;4243;49.296;11.348;2022-12-18T06:23:56;106.88;;;3.42;;
8411;SDS011;4243;49.296;11.348;2022-12-18T06:26:24;106.53;;;3.47;;
8411;SDS011;4243;49.296;11.348;2022-12-18T06:28:54;107.13;;;3.50;;
8411;SDS011;4243;49.296;11.348;2022-12-18T06:31:21;107.28;;;3.42;;
8411;SDS011;4243;49.296;11.348;2022-12-18T06:33:48;106.43;;;3.47;;
8411;SDS011;4243;49.296;11.348;2022-12-18T06:36:15;107.13;;;3.42;;
8411;SDS011;4243;49.296;11.348;2022-12-18T06:38:43;106.97;;;3.45;;
8411;SDS011;4243;49.296;11.348;2022-12-18T06:41:12;107.75;;;3.45;;
8411;SDS011;4243;49.296;11.348;2022-12-18T06:43:45;107.55;;;3.42;;
8411;SDS011;4243;49.296;11.348;2022-12-18T06:46:12;106.93;;;3.40;;
8411;SDS011;4243;49.296;11.348;2022-12-18T06:48:39;107.18;;;3.45;;
8411;SDS011;4243;49.296;11.348;2022-12-18T06:51:07;107.60;;;3.47;;
8411;SDS011;4243;49.296;11.348;2022-12-18T06:53:34;107.20;;;3.45;;
8411;SDS011;4243;49.296;11.348;2022-12-18T06:56:02;106.97;;;3.42;;
8411;SDS011;4243;49.296;11.348;2022-12-18T06:58:36;106.85;;;3.42;;
8411;SDS011;4243;49.296;11.348;2022-12-18T07:01:05;107.28;;;3.45;;
8411;SDS011;4243;49.296;11.348;2022-12-18T07:03:37;107.07;;;3.45;;
8411;SDS011;4243;49.296;11.348;2022-12-18T07:06:12;107.13;;;3.40;;
8411;SDS011;4243;49.296;11.348;2022-12-18T07:08:44;107.38;;;3.47;;
8411;SDS011;4243;49.296;11.348;2022-12-18T07:11:14;107.38;;;3.47;;
8411;SDS011;4243;49.296;11.348;2022-12-18T07:13:43;107.13;;;3.47;;
8411;SDS011;4243;49.296;11.348;2022-12-18T07:16:12;107.18;;;3.42;;
8411;SDS011;4243;49.296;11.348;2022-12-18T07:18:50;107.30;;;3.40;;
8411;SDS011;4243;49.296;11.348;2022-12-18T07:21:18;106.88;;;3.40;;
8411;SDS011;4243;49.296;11.348;2022-12-18T07:23:46;106.63;;;3.47;;
8411;SDS011;4243;49.296;11.348;2022-12-18T07:26:14;107.47;;;3.45;;
8411;SDS011;4243;49.296;11.348;2022-12-18T07:28:46;106.75;;;3.42;;
8411;SDS011;4243;49.296;11.348;2022-12-18T07:31:15;107.60;;;3.42;;
8411;SDS011;4243;49.296;11.348;2022-12-18T07:33:47;107.60;;;3.47;;
8411;SDS011;4243;49.296;11.348;2022-12-18T07:36:15;106.93;;;3.40;;
8411;SDS011;4243;49.296;11.348;2022-12-18T07:38:42;107.32;;;3.47;;
8411;SDS011;4243;49.296;11.348;2022-12-18T07:41:10;107.68;;;3.40;;
8411;SDS011;4243;49.296;11.348;2022-12-18T07:43:39;107.18;;;3.42;;
8411;SDS011;4243;49.296;11.348;2022-12-18T07:46:08;106.53;;;3.38;;
8411;SDS011;4243;49.296;11.348;2022-12-18T07:48:39;106.43;;;3.42;;
8411;SDS011;4243;49.296;11.348;2022-12-18T07:51:14;107.47;;;3.45;;
8411;SDS011;4243;49.296;11.348;2022-12-18T07:53:43;107.85;;;3.40;;
8411;SDS011;4243;49.296;11.348;2022-12-18T07:56:11;107.47;;;3.38;;
8411;SDS011;4243;49.296;11.348;2022-12-18T07:58:57;107.90;;;3.40;;
8411;SDS011;4243;49.296;11.348;2022-12-18T08:01:28;107.28;;;3.40;;
8411;SDS011;4243;49.296;11.348;2022-12-18T08:03:56;107.85;;;3.40;;
8411;SDS011;4243;49.296;11.348;2022-12-18T08:06:24;107.28;;;3.40;;
8411;SDS011;4243;49.296;11.348;2022-12-18T08:08:52;107.90;;;3.42;;
8411;SDS011;4243;49.296;11.348;2022-12-18T08:11:21;107.38;;;3.45;;
8411;SDS011;4243;49.296;11.348;2022-12-18T08:13:51;107.50;;;3.45;;
8411;SDS011;4243;49.296;11.348;2022-12-18T08:16:18;107.80;;;3.45;;
8411;SDS011;4243;49.296;11.348;2022-12-18T08:18:47;107.50;;;3.47;;
8411;SDS011;4243;49.296;11.348;2022-12-18T08:21:15;107.28;;;3.42;;
8411;SDS011;4243;49.296;11.348;2022-12-18T08:24:00;107.45;;;3.45;;
8411;SDS011;4243;49.296;11.348;2022-12-18T08:26:29;107.38;;;3.47;;
8411;SDS011;4243;49.296;11.348;2022-12-18T08:28:58;107.45;;;3.45;;
8411;SDS011;4243;49.296;11.348;2022-12-18T08:31:26;107.85;;;3.45;;
8411;SDS011;4243;49.296;11.348;2022-12-18T08:33:56;107.90;;;3.40;;
8411;SDS011;4243;49.296;11.348;2022-12-18T08:36:23;107.80;;;3.40;;
8411;SDS011;4243;49.296;11.348;2022-12-18T08:38:52;107.93;;;3.42;;
8411;SDS011;4243;49.296;11.348;2022-12-18T08:41:20;107.47;;;3.40;;
8411;SDS011;4243;49.296;11.348;2022-12-18T08:43:47;107.50;;;3.42;;
8411;SDS011;4243;49.296;11.348;2022-12-18T08:46:34;107.63;;;3.38;;
8411;SDS011;4243;49.296;11.348;2022-12-18T08:49:06;106.82;;;3.40;;
8411;SDS011;4243;49.296;11.348;2022-12-18T08:51:36;107.60;;;3.40;;
8411;SDS011;4243;49.296;11.348;2022-12-18T08:54:04;108.10;;;3.50;;
8411;SDS011;4243;49.296;11.348;2022-12-18T08:56:32;107.32;;;3.42;;
8411;SDS011;4243;49.296;11.348;2022-12-18T08:59:00;108.07;;;3.50;;
8411;SDS011;4243;49.296;11.348;2022-12-18T09:03:38;108.20;;;3.50;;
8411;SDS011;4243;49.296;11.348;2022-12-18T09:06:06;107.88;;;3.45;;
8411;SDS011;4243;49.296;11.348;2022-12-18T09:08:33;107.97;;;3.40;;
8411;SDS011;4243;49.296;11.348;2022-12-18T09:11:03;107.00;;;3.42;;
8411;SDS011;4243;49.296;11.348;2022-12-18T09:13:30;107.47;;;3.40;;
8411;SDS011;4243;49.296;11.348;2022-12-18T09:15:57;107.13;;;3.47;;
8411;SDS011;4243;49.296;11.348;2022-12-18T09:18:25;108.10;;;3.42;;
8411;SDS011;4243;49.296;11.348;2022-12-18T09:20:52;108.40;;;3.50;;
8411;SDS011;4243;49.296;11.348;2022-12-18T09:23:20;108.18;;;3.50;;
8411;SDS011;4243;49.296;11.348;2022-12-18T09:25:48;107.13;;;3.47;;
8411;SDS011;4243;49.296;11.348;2022-12-18T09:28:17;107.72;;;3.40;;
8411;SDS011;4243;49.296;11.348;2022-12-18T09:30:46;107.97;;;3.42;;
8411;SDS011;4243;49.296;11.348;2022-12-18T09:33:16;107.68;;;3.42;;
8411;SDS011;4243;49.296;11.348;2022-12-18T09:35:45;108.25;;;3.33;;
8411;SDS011;4243;49.296;11.348;2022-12-18T09:38:14;108.03;;;3.35;;
8411;SDS011;4243;49.296;11.348;2022-12-18T09:40:47;108.47;;;3.47;;
8411;SDS011;4243;49.296;11.348;2022-12-18T09:43:20;108.32;;;3.42;;
8411;SDS011;4243;49.296;11.348;2022-12-18T09:45:58;109.47;;;3.40;;
8411;SDS011;4243;49.296;11.348;2022-12-18T09:48:36;109.07;;;3.42;;
8411;SDS011;4243;49.296;11.348;2022-12-18T09:51:17;109.18;;;3.42;;
8411;SDS011;4243;49.296;11.348;2022-12-18T09:53:55;107.88;;;3.42;;
8411;SDS011;4243;49.296;11.348;2022-12-18T09:56:34;108.43;;;3.45;;
8411;SDS011;4243;49.296;11.348;2022-12-18T09:59:09;108.60;;;3.40;;
8411;SDS011;4243;49.296;11.348;2022-12-18T10:01:53;108.07;;;3.33;;
8411;SDS011;4243;49.296;11.348;2022-12-18T10:04:21;107.43;;;3.40;;
8411;SDS011;4243;49.296;11.348;2022-12-18T10:16:14;107.63;;;3.40;;
8411;SDS011;4243;49.296;11.348;2022-12-18T10:27:55;108.60;;;3.38;;
8411;SDS011;4243;49.296;11.348;2022-12-18T10:30:35;109.28;;;3.38;;
8411;SDS011;4243;49.296;11.348;2022-12-18T10:33:02;108.93;;;3.38;;
8411;SDS011;4243;49.296;11.348;2022-12-18T10:35:29;109.22;;;3.35;;
8411;SDS011;4243;49.296;11.348;2022-12-18T10:40:52;109.47;;;3.30;;
8411;SDS011;4243;49.296;11.348;2022-12-18T10:46:08;109.45;;;3.38;;
8411;SDS011;4243;49.296;11.348;2022-12-18T10:51:34;109.13;;;3.38;;
8411;SDS011;4243;49.296;11.348;2022-12-18T10:54:13;107.55;;;3.38;;
8411;SDS011;4243;49.296;11.348;2022-12-18T10:56:48;109.32;;;3.40;;
8411;SDS011;4243;49.296;11.348;2022-12-18T10:59:19;108.93;;;3.40;;
8411;SDS011;4243;49.296;11.348;2022-12-18T11:01:51;108.88;;;3.40;;
8411;SDS011;4243;49.296;11.348;2022-12-18T11:07:07;109.28;;;3.42;;
8411;SDS011;4243;49.296;11.348;2022-12-18T11:09:37;109.38;;;3.35;;
8411;SDS011;4243;49.296;11.348;2022-12-18T11:14:47;110.30;;;3.33;;
8411;SDS011;4243;49.296;11.348;2022-12-18T11:17:22;108.18;;;3.30;;
8411;SDS011;4243;49.296;11.348;2022-12-18T11:20:46;108.03;;;3.28;;
8411;SDS011;4243;49.296;11.348;2022-12-18T11:23:04;109.77;;;3.10;;
8411;SDS011;4243;49.296;11.348;2022-12-18T11:25:39;111.20;;;3.13;;
8411;SDS011;4243;49.296;11.348;2022-12-18T11:28:25;111.00;;;3.13;;
8411;SDS011;4243;49.296;11.348;2022-12-18T11:31:21;112.10;;;3.00;;
8411;SDS011;4243;49.296;11.348;2022-12-18T11:36:55;113.37;;;3.13;;
8411;SDS011;4243;49.296;11.348;2022-12-18T11:39:36;113.50;;;3.13;;
8411;SDS011;4243;49.296;11.348;2022-12-18T11:42:15;113.77;;;3.07;;
8411;SDS011;4243;49.296;11.348;2022-12-18T11:50:19;111.17;;;3.17;;
8411;SDS011;4243;49.296;11.348;2022-12-18T11:53:11;111.60;;;3.20;;
8411;SDS011;4243;49.296;11.348;2022-12-18T11:58:49;109.77;;;3.20;;
8411;SDS011;4243;49.296;11.348;2022-12-18T12:05:28;108.47;;;3.22;;
8411;SDS011;4243;49.296;11.348;2022-12-18T12:08:41;110.47;;;3.33;;
8411;SDS011;4243;49.296;11.348;2022-12-18T12:11:48;109.57;;;3.30;;
8411;SDS011;4243;49.296;11.348;2022-12-18T12:15:00;109.13;;;3.28;;
8411;SDS011;4243;49.296;11.348;2022-12-18T12:17:53;109.60;;;3.33;;
8411;SDS011;4243;49.296;11.348;2022-12-18T12:20:49;109.65;;;3.30;;
8411;SDS011;4243;49.296;11.348;2022-12-18T12:35:39;108.93;;;3.35;;
8411;SDS011;4243;49.296;11.348;2022-12-18T12:38:35;109.55;;;3.33;;
8411;SDS011;4243;49.296;11.348;2022-12-18T12:41:18;109.68;;;3.35;;
8411;SDS011;4243;49.296;11.348;2022-12-18T12:44:24;109.70;;;3.33;;
8411;SDS011;4243;49.296;11.348;2022-12-18T12:47:11;109.57;;;3.35;;
8411;SDS011;4243;49.296;11.348;2022-12-18T12:49:51;108.43;;;3.30;;
8411;SDS011;4243;49.296;11.348;2022-12-18T12:52:35;109.40;;;3.30;;
8411;SDS011;4243;49.296;11.348;2022-12-18T12:55:19;109.70;;;3.30;;
8411;SDS011;4243;49.296;11.348;2022-12-18T12:58:00;109.68;;;3.30;;
8411;SDS011;4243;49.296;11.348;2022-12-18T13:07:15;109.70;;;3.25;;
8411;SDS011;4243;49.296;11.348;2022-12-18T13:12:53;109.78;;;3.25;;
8411;SDS011;4243;49.296;11.348;2022-12-18T13:15:41;109.68;;;3.22;;
8411;SDS011;4243;49.296;11.348;2022-12-18T13:18:22;108.70;;;3.25;;
8411;SDS011;4243;49.296;11.348;2022-12-18T13:21:01;109.75;;;3.22;;
8411;SDS011;4243;49.296;11.348;2022-12-18T13:23:38;109.82;;;3.30;;
8411;SDS011;4243;49.296;11.348;2022-12-18T13:28:53;109.53;;;3.25;;
8411;SDS011;4243;49.296;11.348;2022-12-18T13:31:58;109.93;;;3.25;;
8411;SDS011;4243;49.296;11.348;2022-12-18T13:34:23;110.47;;;3.20;;
8411;SDS011;4243;49.296;11.348;2022-12-18T13:36:57;110.85;;;3.20;;
8411;SDS011;4243;49.296;11.348;2022-12-18T13:39:58;109.78;;;3.25;;
8411;SDS011;4243;49.296;11.348;2022-12-18T13:42:35;109.78;;;3.25;;
8411;SDS011;4243;49.296;11.348;2022-12-18T13:45:34;110.45;;;3.22;;
8411;SDS011;4243;49.296;11.348;2022-12-18T13:48:15;109.57;;;3.22;;
8411;SDS011;4243;49.296;11.348;2022-12-18T13:50:49;109.63;;;3.20;;
8411;SDS011;4243;49.296;11.348;2022-12-18T13:53:38;108.38;;;3.25;;
8411;SDS011;4243;49.296;11.348;2022-12-18T13:56:27;109.47;;;3.25;;
8411;SDS011;4243;49.296;11.348;2022-12-18T13:59:05;109.07;;;3.20;;
8411;SDS011;4243;49.296;11.348;2022-12-18T14:02:13;109.13;;;3.25;;
8411;SDS011;4243;49.296;11.348;2022-12-18T14:04:44;108.63;;;3.30;;
8411;SDS011;4243;49.296;11.348;2022-12-18T14:07:14;109.07;;;3.30;;
8411;SDS011;4243;49.296;11.348;2022-12-18T14:09:55;108.57;;;3.28;;
8411;SDS011;4243;49.296;11.348;2022-12-18T14:12:48;108.78;;;3.28;;
8411;SDS011;4243;49.296;11.348;2022-12-18T14:17:53;108.75;;;3.30;;
8411;SDS011;4243;49.296;11.348;2022-12-18T14:20:28;108.97;;;3.30;;
8411;SDS011;4243;49.296;11.348;2022-12-18T14:22:58;108.88;;;3.30;;
8411;SDS011;4243;49.296;11.348;2022-12-18T14:25:27;109.07;;;3.33;;
8411;SDS011;4243;49.296;11.348;2022-12-18T14:30:37;108.65;;;3.33;;
8411;SDS011;4243;49.296;11.348;2022-12-18T14:35:42;108.38;;;3.33;;
8411;SDS011;4243;49.296;11.348;2022-12-18T14:38:31;107.88;;;3.33;;
8411;SDS011;4243;49.296;11.348;2022-12-18T14:41:12;108.80;;;3.33;;
8411;SDS011;4243;49.296;11.348;2022-12-18T14:43:43;108.78;;;3.35;;
8411;SDS011;4243;49.296;11.348;2022-12-18T14:46:28;108.47;;;3.35;;
8411;SDS011;4243;49.296;11.348;2022-12-18T14:49:26;108.72;;;3.35;;
8411;SDS011;4243;49.296;11.348;2022-12-18T14:52:03;108.50;;;3.33;;
8411;SDS011;4243;49.296;11.348;2022-12-18T14:54:54;108.88;;;3.38;;
8411;SDS011;4243;49.296;11.348;2022-12-18T14:57:25;108.03;;;3.40;;
8411;SDS011;4243;49.296;11.348;2022-12-18T15:00:06;108.68;;;3.42;;
8411;SDS011;4243;49.296;11.348;2022-12-18T15:02:48;108.47;;;3.40;;
8411;SDS011;4243;49.296;11.348;2022-12-18T15:05:26;107.15;;;3.40;;
8411;SDS011;4243;49.296;11.348;2022-12-18T15:07:58;108.47;;;3.30;;
8411;SDS011;4243;49.296;11.348;2022-12-18T15:10:32;108.38;;;3.38;;
8411;SDS011;4243;49.296;11.348;2022-12-18T15:20:52;108.22;;;3.42;;
8411;SDS011;4243;49.296;11.348;2022-12-18T15:23:26;107.88;;;3.40;;
8411;SDS011;4243;49.296;11.348;2022-12-18T15:26:13;107.53;;;3.40;;
8411;SDS011;4243;49.296;11.348;2022-12-18T15:28:50;108.20;;;3.40;;
8411;SDS011;4243;49.296;11.348;2022-12-18T15:31:34;107.25;;;3.40;;
8411;SDS011;4243;49.296;11.348;2022-12-18T15:36:34;107.70;;;3.33;;
8411;SDS011;4243;49.296;11.348;2022-12-18T15:39:03;107.68;;;3.30;;
8411;SDS011;4243;49.296;11.348;2022-12-18T15:41:33;107.05;;;3.38;;
8411;SDS011;4243;49.296;11.348;2022-12-18T15:44:03;107.35;;;3.40;;
8411;SDS011;4243;49.296;11.348;2022-12-18T15:46:51;108.07;;;3.30;;
8411;SDS011;4243;49.296;11.348;2022-12-18T15:49:22;107.78;;;3.35;;
8411;SDS011;4243;49.296;11.348;2022-12-18T15:51:53;107.68;;;3.40;;
8411;SDS011;4243;49.296;11.348;2022-12-18T15:54:24;107.90;;;3.40;;
8411;SDS011;4243;49.296;11.348;2022-12-18T15:57:11;108.07;;;3.42;;
8411;SDS011;4243;49.296;11.348;2022-12-18T15:59:54;108.13;;;3.40;;
8411;SDS011;4243;49.296;11.348;2022-12-18T16:02:24;108.00;;;3.35;;
8411;SDS011;4243;49.296;11.348;2022-12-18T16:04:52;107.82;;;3.38;;
8411;SDS011;4243;49.296;11.348;2022-12-18T16:07:20;107.57;;;3.38;;
8411;SDS011;4243;49.296;11.348;2022-12-18T16:09:50;107.68;;;3.40;;
8411;SDS011;4243;49.296;11.348;2022-12-18T16:12:18;107.47;;;3.35;;
8411;SDS011;4243;49.296;11.348;2022-12-18T16:14:48;106.50;;;3.40;;
8411;SDS011;4243;49.296;11.348;2022-12-18T16:17:16;107.68;;;3.40;;
8411;SDS011;4243;49.296;11.348;2022-12-18T16:19:44;107.57;;;3.35;;
8411;SDS011;4243;49.296;11.348;2022-12-18T16:22:19;106.68;;;3.30;;
8411;SDS011;4243;49.296;11.348;2022-12-18T16:24:53;106.82;;;3.33;;
8411;SDS011;4243;49.296;11.348;2022-12-18T16:27:23;107.88;;;3.38;;
8411;SDS011;4243;49.296;11.348;2022-12-18T16:29:50;107.88;;;3.38;;
8411;SDS011;4243;49.296;11.348;2022-12-18T16:32:19;107.78;;;3.38;;
8411;SDS011;4243;49.296;11.348;2022-12-18T16:34:48;107.90;;;3.38;;
8411;SDS011;4243;49.296;11.348;2022-12-18T16:37:16;107.32;;;3.33;;
8411;SDS011;4243;49.296;11.348;2022-12-18T16:39:43;106.70;;;3.38;;
8411;SDS011;4243;49.296;11.348;2022-12-18T16:42:12;107.47;;;3.33;;
8411;SDS011;4243;49.296;11.348;2022-12-18T16:44:45;107.57;;;3.42;;
8411;SDS011;4243;49.296;11.348;2022-12-18T16:47:14;107.68;;;3.38;;
8411;SDS011;4243;49.296;11.348;2022-12-18T16:49:43;108.00;;;3.38;;
8411;SDS011;4243;49.296;11.348;2022-12-18T16:52:12;107.63;;;3.40;;
8411;SDS011;4243;49.296;11.348;2022-12-18T16:54:40;107.68;;;3.35;;
8411;SDS011;4243;49.296;11.348;2022-12-18T16:57:08;107.75;;;3.40;;
8411;SDS011;4243;49.296;11.348;2022-12-18T16:59:40;107.68;;;3.38;;
8411;SDS011;4243;49.296;11.348;2022-12-18T17:02:18;107.68;;;3.47;;
8411;SDS011;4243;49.296;11.348;2022-12-18T17:04:51;107.70;;;3.40;;
8411;SDS011;4243;49.296;11.348;2022-12-18T17:07:21;108.10;;;3.38;;
8411;SDS011;4243;49.296;11.348;2022-12-18T17:09:49;107.68;;;3.38;;
8411;SDS011;4243;49.296;11.348;2022-12-18T17:12:19;107.43;;;3.40;;